Flight Track Log - Related Links

Times and Time Zones

All times are in EST time to prevent confusion due to time zone crossing. See the AAY860 flight status page for this flight to view local times or setup timezone preferences in your user account.

Time Position Orientation Groundspeed Altitude Reporting Facility
EST Latitude Longitude Course Direction KTS MPH feet Rate Location/Type
Fri 07:26:09 27.9333 -82.7000 348° North 147 169 1,000  Level Tampa TRACON
Fri 07:28:06 28.0206 -82.7208 348° North 189 217 3,900 1,864 Climbing Jacksonville Center
Fri 07:29:06 28.0956 -82.7467 343° North 222 255 6,500 2,750 Climbing Jacksonville Center
Fri 07:30:06 28.1792 -82.7561 354° North 276 318 9,400 2,300 Climbing Jacksonville Center
Fri 07:31:06 28.2647 -82.7794 346° North 299 344 11,100 1,800 Climbing Jacksonville Center
Fri 07:32:06 28.3628 -82.8217 339° North 338 389 13,000 2,350 Climbing Jacksonville Center
Fri 07:33:06 28.4672 -82.8619 341° North 376 433 15,800 2,400 Climbing Jacksonville Center
Fri 07:34:06 28.5797 -82.8997 344° North 400 460 17,800 1,900 Climbing Jacksonville Center
Fri 07:35:06 28.6925 -82.9400 343° North 416 479 19,600 1,800 Climbing Jacksonville Center
Fri 07:36:06 28.7947 -82.9683 346° North 421 484 21,400 1,600 Climbing Jacksonville Center
Fri 07:37:06 28.9011 -83.0325 332° Northwest 421 484 22,800 1,400 Climbing Jacksonville Center
Fri 07:38:06 29.0033 -83.1133 325° Northwest 434 499 24,200 1,500 Climbing Jacksonville Center
Fri 07:39:06 29.1056 -83.1919 326° Northwest 445 512 25,800 1,400 Climbing Jacksonville Center
Fri 07:40:06 29.2033 -83.2756 323° Northwest 445 512 27,000 1,250 Climbing Jacksonville Center
Fri 07:41:06 29.3075 -83.3522 327° Northwest 445 512 28,300 1,100 Climbing Jacksonville Center
Fri 07:42:06 29.4306 -83.3933 344° North 445 512 29,200 850 Climbing Jacksonville Center
Fri 07:43:06 29.5556 -83.4297 346° North 450 518 30,000 350 Climbing Jacksonville Center
Fri 07:44:06 29.6828 -83.4639 347° North 460 529 29,900 -50 Descending Jacksonville Center
Fri 07:45:06 29.8142 -83.4981 347° North 471 542 29,900  Level Jacksonville Center
Fri 07:46:06 29.9392 -83.5303 347° North 471 542 29,900 50 Level Jacksonville Center
Fri 07:47:06 30.0706 -83.5647 347° North 471 542 30,000 100 Climbing Jacksonville Center
Fri 07:48:06 30.1956 -83.6014 346° North 465 535 30,100 550 Climbing Jacksonville Center
Fri 07:49:06 30.3250 -83.6289 350° North 465 535 31,100 900 Climbing Jacksonville Center
Fri 07:50:06 30.4458 -83.6661 345° North 465 535 31,900 450 Climbing Jacksonville Center
Fri 07:51:06 30.5689 -83.6961 348° North 460 529 32,000 600 Climbing Jacksonville Center
Fri 07:52:06 30.6939 -83.7333 346° North 455 524 33,100 1,000 Climbing Jacksonville Center
Fri 07:53:06 30.8189 -83.7633 348° North 449 517 34,000 450 Climbing Jacksonville Center
Fri 07:54:06 30.9461 -83.8033 345° North 444 511 34,000  Level Jacksonville Center
Fri 07:55:06 31.0689 -83.8311 349° North 444 511 34,000  Level Jacksonville Center
Fri 07:56:06 31.1919 -83.8689 345° North 444 511 34,000  Level Jacksonville Center
Fri 07:58:15 31.4503 -83.9439 346° North 453 521 34,000  Level Atlanta Center
Fri 07:59:15 31.5503 -83.9683 348° North 453 521 34,000  Level Atlanta Center
Fri 08:00:15 31.6861 -83.9950 351° North 448 516 34,000  Level Atlanta Center
Fri 08:01:15 31.8072 -84.0267 347° North 448 516 34,000  Level Atlanta Center
Fri 08:02:15 31.9303 -84.0486 351° North 448 516 34,000  Level Atlanta Center
Fri 08:03:15 32.0533 -84.0831 347° North 448 516 34,000  Level Atlanta Center
Fri 08:04:15 32.1786 -84.1025 353° North 448 516 34,000  Level Atlanta Center
Fri 08:05:15 32.2997 -84.1347 347° North 448 516 34,000  Level Atlanta Center
Fri 08:06:15 32.4228 -84.1569 351° North 448 516 34,000  Level Atlanta Center
Fri 08:07:15 32.5439 -84.1917 346° North 448 516 34,000  Level Atlanta Center
Fri 08:08:15 32.6669 -84.2164 350° North 448 516 34,000  Level Atlanta Center
Fri 08:09:15 32.7900 -84.2439 349° North 448 516 34,000  Level Atlanta Center
Fri 08:10:15 32.9236 -84.2789 348° North 442 509 34,000  Level Atlanta Center
Fri 08:11:15 33.0467 -84.3039 350° North 452 520 34,000  Level Atlanta Center
Fri 08:12:15 33.1697 -84.3342 348° North 447 514 34,000  Level Atlanta Center
Fri 08:13:15 33.2928 -84.3594 350° North 447 514 34,000  Level Atlanta Center
Fri 08:14:15 33.4139 -84.3922 347° North 447 514 34,000  Level Atlanta Center
Fri 08:15:15 33.5411 -84.4150 352° North 447 514 34,000  Level Atlanta Center
Fri 08:16:15 33.6497 -84.4356 351° North 447 514 34,000  Level Atlanta Center
Fri 08:17:15 33.7811 -84.4036 11° North 454 522 34,000  Level Atlanta Center
Fri 08:18:15 33.9086 -84.3742 11° North 468 539 34,000  Level Atlanta Center
Fri 08:19:15 34.0422 -84.3422 11° North 468 539 34,000  Level Atlanta Center
Fri 08:20:15 34.1947 -84.3025 12° North 488 562 34,000  Level Atlanta Center
Fri 08:21:15 34.3242 -84.2778 North 482 555 34,000  Level Atlanta Center
Fri 08:22:15 34.4536 -84.2806 359° North 474 545 34,000  Level Atlanta Center
Fri 08:23:15 34.5808 -84.2861 358° North 458 527 34,000  Level Atlanta Center
Fri 08:24:15 34.7122 -84.2864 360° North 458 527 34,000  Level Atlanta Center
Fri 08:25:15 34.8353 -84.2994 355° North 450 518 34,000  Level Atlanta Center
Fri 08:26:15 34.9586 -84.3022 359° North 444 511 34,000  Level Atlanta Center
Fri 08:27:15 35.0817 -84.3181 354° North 439 505 34,000  Level Atlanta Center
Fri 08:28:15 35.2067 -84.3183 360° North 445 512 34,000  Level Atlanta Center
Fri 08:29:15 35.3319 -84.3289 356° North 445 512 34,000  Level Atlanta Center
Fri 08:30:15 35.4592 -84.3344 358° North 445 512 34,000  Level Atlanta Center
Fri 08:31:15 35.5844 -84.3400 358° North 445 512 34,000 -450 Level Atlanta Center
Fri 08:32:15 35.7033 -84.3431 359° North 440 506 33,100 -950 Descending Atlanta Center
Fri 08:33:15 35.8242 -84.3539 356° North 440 506 32,100 -950 Descending Atlanta Center
Fri 08:34:15 35.9472 -84.3594 358° North 440 506 31,200 -950 Descending Atlanta Center
Fri 08:35:15 36.0725 -84.3675 357° North 440 506 30,200 -1,000 Descending Atlanta Center
Fri 08:36:15 36.1956 -84.3758 357° North 440 506 29,200 -896 Descending Atlanta Center
Fri 08:37:29 36.3425 -84.3794 359° North 453 521 28,200 -533 Descending Indianapolis Center
Fri 08:38:30 36.4633 -84.3878 357° North 439 505 28,000 -98 Descending Indianapolis Center
Fri 08:39:32 36.5978 -84.3939 358° North 434 499 28,000 -97 Level Indianapolis Center
Fri 08:40:34 36.7192 -84.4017 357° North 435 501 27,800 -488 Descending Indianapolis Center
Fri 08:41:35 36.8419 -84.4083 358° North 438 504 27,000 -927 Descending Indianapolis Center
Fri 08:42:37 36.9619 -84.4178 356° North 432 497 25,900 -1,854 Descending Indianapolis Center
Fri 08:43:38 37.0836 -84.4231 358° North 434 499 23,200 -3,024 Descending Indianapolis Center
Fri 08:44:40 37.2022 -84.4300 357° North 426 490 19,700 -3,532 Descending Indianapolis Center
Fri 08:45:42 37.3161 -84.4344 358° North 411 473 15,900 -4,049 Descending Indianapolis Center
Fri 08:46:43 37.4389 -84.4456 356° North 382 440 11,400 -2,878 Descending Indianapolis Center
Fri 08:47:45 37.5403 -84.4469 359° North 370 426 10,000 -677 Descending Indianapolis Center
Fri 08:48:47 37.6289 -84.4531 357° North 331 381 10,000 -488 Level Indianapolis Center
Fri 08:49:48 37.7047 -84.4564 358° North 289 333 9,000 -1,268 Descending Indianapolis Center
Fri 08:50:50 37.7797 -84.4639 355° North 272 313 7,400 -1,645 Descending Indianapolis Center
Fri 08:51:52 37.8531 -84.4653 359° North 265 305 5,600 -1,122 Descending Indianapolis Center
Fri 08:52:53 37.9267 -84.4725 356° North 264 304 5,100 -244 Descending Indianapolis Center
Fri 08:53:55 37.9917 -84.4664 North 209 241 5,100 -242 Level Indianapolis Center
Fri 08:54:57 38.0372 -84.4342 29° Northeast 187 215 4,600 -532 Descending Indianapolis Center
Fri 08:55:59 38.0811 -84.4036 29° Northeast 185 213 4,000 -244 Descending Indianapolis Center
Fri 08:57:00 38.1208 -84.3994 North 169 194 4,100 -293 Climbing Indianapolis Center
Fri 08:58:02 38.1442 -84.4472 302° West 161 185 3,400 -532 Descending Indianapolis Center
Fri 08:59:04 38.1394 -84.4908 262° West 159 183 3,000 -242 Descending Indianapolis Center
Fri 09:00:06 38.1081 -84.5269 222° Southwest 144 166 2,900 -387 Descending Indianapolis Center
Fri 09:01:08 38.0828 -84.5550 221° Southwest 132 152 2,200 -634 Descending Indianapolis Center
Fri 09:02:09 38.0614 -84.5786 221° Southwest 127 146 1,600 -590 Descending Indianapolis Center

Login

Don't have an account? Register now (free) for customized features, flight alerts, and more!